createdAt,value
2016-12-05T00:00:08.169Z,85.93
2016-12-05T00:01:08.297Z,84.82
2016-12-05T00:02:07.871Z,86.10
2016-12-05T00:03:08.558Z,86.28
2016-12-05T00:04:08.243Z,85.92
2016-12-05T00:05:07.858Z,86.37
2016-12-05T00:06:08.504Z,85.95
2016-12-05T00:07:08.087Z,87.12
2016-12-05T00:08:07.558Z,86.90
2016-12-05T00:09:08.106Z,87.34
2016-12-05T00:10:08.555Z,87.24
2016-12-05T00:11:08.170Z,86.59
2016-12-05T00:12:08.635Z,86.59
2016-12-05T00:13:08.213Z,85.73
2016-12-05T00:14:07.757Z,85.34
2016-12-05T00:15:08.337Z,85.18
2016-12-05T00:16:07.913Z,85.78
2016-12-05T00:17:08.648Z,85.86
2016-12-05T00:18:08.242Z,85.57
2016-12-05T00:19:07.778Z,85.46
2016-12-05T00:20:08.411Z,85.00
2016-12-05T00:21:08.061Z,85.17
2016-12-05T00:22:07.673Z,85.16
2016-12-05T00:23:08.299Z,84.39
2016-12-05T00:24:07.772Z,84.47
2016-12-05T00:25:08.430Z,85.25
2016-12-05T00:26:09.089Z,84.94
2016-12-05T00:27:07.570Z,85.09
2016-12-05T00:28:08.141Z,85.13
2016-12-05T00:29:07.641Z,86.03
2016-12-05T00:30:08.273Z,85.84
2016-12-05T00:31:07.800Z,85.10
2016-12-05T00:32:09.272Z,85.53
2016-12-05T00:33:07.843Z,85.56
2016-12-05T00:34:08.509Z,86.18
2016-12-05T00:35:08.095Z,86.43
2016-12-05T00:36:07.897Z,86.06
2016-12-05T00:37:14.179Z,86.71
2016-12-05T00:38:07.740Z,86.31
2016-12-05T00:39:08.489Z,86.79
2016-12-05T00:40:08.032Z,86.51
2016-12-05T00:41:07.542Z,87.19
2016-12-05T00:42:08.149Z,86.74
2016-12-05T00:43:07.702Z,86.22
2016-12-05T00:44:08.367Z,85.78
2016-12-05T00:45:07.862Z,85.20
2016-12-05T00:46:08.440Z,84.99
2016-12-05T00:47:08.041Z,86.03
2016-12-05T00:48:07.540Z,86.80
2016-12-05T00:49:08.132Z,86.39
2016-12-05T00:50:07.705Z,87.01
2016-12-05T00:51:08.228Z,86.43
2016-12-05T00:52:07.883Z,85.82
2016-12-05T00:53:08.585Z,86.62
2016-12-05T00:54:08.166Z,87.33
2016-12-05T00:55:07.787Z,86.42
2016-12-05T00:56:13.912Z,86.13
2016-12-05T00:57:07.528Z,86.33
2016-12-05T00:58:08.155Z,86.01
2016-12-05T00:59:07.947Z,85.20
2016-12-05T01:00:07.635Z,84.58
2016-12-05T01:01:08.450Z,85.19
2016-12-05T01:02:08.243Z,84.66
2016-12-05T01:03:07.700Z,84.28
2016-12-05T01:04:07.983Z,84.73
2016-12-05T01:05:07.498Z,84.39
2016-12-05T01:06:08.064Z,83.74
2016-12-05T01:07:07.766Z,83.04
2016-12-05T01:08:08.207Z,84.13
2016-12-05T01:09:07.691Z,84.43
2016-12-05T01:10:08.136Z,84.57
2016-12-05T01:11:08.604Z,84.04
2016-12-05T01:12:08.209Z,84.20
2016-12-05T01:13:08.100Z,84.11
2016-12-05T01:14:08.108Z,83.88
2016-12-05T01:15:08.219Z,84.65
2016-12-05T01:16:07.791Z,84.24
2016-12-05T01:17:09.170Z,83.79
2016-12-05T01:18:07.701Z,83.45
2016-12-05T01:19:08.268Z,83.94
2016-12-05T01:20:07.828Z,84.66
2016-12-05T01:21:08.688Z,85.41
2016-12-05T01:22:08.339Z,85.84
2016-12-05T01:23:07.795Z,85.66
2016-12-05T01:24:07.696Z,86.25
2016-12-05T01:25:08.127Z,86.13
2016-12-05T01:26:07.558Z,85.89
2016-12-05T01:27:08.273Z,85.63
2016-12-05T01:28:07.853Z,85.63
2016-12-05T01:29:08.534Z,85.68
2016-12-05T01:30:08.202Z,85.62
2016-12-05T01:31:07.824Z,85.86
2016-12-05T01:32:08.429Z,84.74
2016-12-05T01:33:08.042Z,84.20
2016-12-05T01:34:07.779Z,85.13
2016-12-05T01:35:08.269Z,85.20
2016-12-05T01:36:08.214Z,85.16
2016-12-05T01:37:07.520Z,85.36
2016-12-05T01:38:08.137Z,85.39
2016-12-05T01:39:07.921Z,85.37
2016-12-05T01:40:08.660Z,86.04
2016-12-05T01:41:08.216Z,86.51
2016-12-05T01:42:08.227Z,85.75
2016-12-05T01:43:07.899Z,86.05
2016-12-05T01:44:08.596Z,86.58
2016-12-05T01:45:08.465Z,86.43
2016-12-05T01:46:10.510Z,86.44
2016-12-05T01:47:08.042Z,86.44
2016-12-05T01:48:07.544Z,85.49
2016-12-05T01:49:08.077Z,86.04
2016-12-05T01:50:07.624Z,86.07
2016-12-05T01:51:08.258Z,86.03
2016-12-05T01:52:08.063Z,86.27
2016-12-05T01:53:07.639Z,86.28
2016-12-05T01:54:08.325Z,86.45
2016-12-05T01:55:07.846Z,86.29
2016-12-05T01:56:09.342Z,85.74
2016-12-05T01:57:07.832Z,85.34
2016-12-05T01:58:08.440Z,84.11
2016-12-05T01:59:08.259Z,84.65
2016-12-05T02:00:07.824Z,84.44
2016-12-05T02:01:08.490Z,84.84
2016-12-05T02:02:08.053Z,84.27
2016-12-05T02:03:07.675Z,84.41
2016-12-05T02:04:08.338Z,84.58
2016-12-05T02:05:07.956Z,83.92
2016-12-05T02:06:07.487Z,83.48
2016-12-05T02:07:08.044Z,84.62
2016-12-05T02:08:08.209Z,85.05
2016-12-05T02:09:08.193Z,85.74
2016-12-05T02:10:07.739Z,85.89
2016-12-05T02:11:08.324Z,85.77
2016-12-05T02:12:07.923Z,84.28
2016-12-05T02:13:08.612Z,84.71
2016-12-05T02:14:08.270Z,84.75
2016-12-05T02:15:07.819Z,85.03
2016-12-05T02:16:08.412Z,84.99
2016-12-05T02:17:07.816Z,86.10
2016-12-05T02:18:08.396Z,85.88
2016-12-05T02:19:08.179Z,86.17
2016-12-05T02:20:08.089Z,85.97
2016-12-05T02:21:07.621Z,86.40
2016-12-05T02:22:08.131Z,86.16
2016-12-05T02:23:08.642Z,86.06
2016-12-05T02:24:08.113Z,85.99
2016-12-05T02:25:08.213Z,86.35
2016-12-05T02:26:08.016Z,86.79
2016-12-05T02:27:07.574Z,86.72
2016-12-05T02:28:08.240Z,86.76
2016-12-05T02:29:07.763Z,86.47
2016-12-05T02:30:08.449Z,86.60
2016-12-05T02:31:08.136Z,86.68
2016-12-05T02:32:07.727Z,86.06
2016-12-05T02:33:08.332Z,86.00
2016-12-05T02:34:08.195Z,86.43
2016-12-05T02:35:07.755Z,86.52
2016-12-05T02:36:14.031Z,87.11
2016-12-05T02:37:13.563Z,86.41
2016-12-05T02:38:08.207Z,86.68
2016-12-05T02:39:07.785Z,86.58
2016-12-05T02:40:08.395Z,86.65
2016-12-05T02:41:07.533Z,86.34
2016-12-05T02:42:08.044Z,86.60
2016-12-05T02:43:08.173Z,85.15
2016-12-05T02:44:13.274Z,84.58
2016-12-05T02:45:07.773Z,84.40
2016-12-05T02:46:08.277Z,83.99
2016-12-05T02:47:08.289Z,83.42
2016-12-05T02:48:07.819Z,84.49
2016-12-05T02:49:08.262Z,84.04
2016-12-05T02:50:07.657Z,84.12
2016-12-05T02:51:08.313Z,83.85
2016-12-05T02:52:07.851Z,83.87
2016-12-05T02:53:08.369Z,83.40
2016-12-05T02:54:13.532Z,83.16
2016-12-05T02:55:08.102Z,82.68
2016-12-05T02:56:07.547Z,82.75
2016-12-05T02:57:07.599Z,82.84
2016-12-05T02:58:08.126Z,83.85
2016-12-05T02:59:07.694Z,84.18
2016-12-05T03:00:08.301Z,84.42
2016-12-05T03:01:07.792Z,85.48
2016-12-05T03:02:08.488Z,84.70
2016-12-05T03:03:08.042Z,85.66
2016-12-05T03:04:07.635Z,85.58
2016-12-05T03:05:08.218Z,85.29
2016-12-05T03:06:07.767Z,85.27
2016-12-05T03:07:08.280Z,86.01
2016-12-05T03:08:07.874Z,85.83
2016-12-05T03:09:08.348Z,85.71
2016-12-05T03:10:08.161Z,85.12
2016-12-05T03:11:07.902Z,84.56
2016-12-05T03:12:08.501Z,84.13
2016-12-05T03:13:08.179Z,84.03
2016-12-05T03:14:07.699Z,84.02
2016-12-05T03:15:08.263Z,83.63
2016-12-05T03:16:07.801Z,84.50
2016-12-05T03:17:08.606Z,84.64
2016-12-05T03:18:08.178Z,83.90
2016-12-05T03:19:07.753Z,84.74
2016-12-05T03:20:08.451Z,85.25
2016-12-05T03:21:08.082Z,84.83
2016-12-05T03:22:07.621Z,85.90
2016-12-05T03:23:08.225Z,85.21
2016-12-05T03:24:07.790Z,85.34
2016-12-05T03:25:08.429Z,84.31
2016-12-05T03:26:07.979Z,84.13
2016-12-05T03:27:07.541Z,83.71
2016-12-05T03:28:08.312Z,84.83
2016-12-05T03:29:07.864Z,84.67
2016-12-05T03:30:07.803Z,84.99
2016-12-05T03:31:08.517Z,85.59
2016-12-05T03:32:08.180Z,85.85
2016-12-05T03:33:07.754Z,86.30
2016-12-05T03:34:08.310Z,86.70
2016-12-05T03:35:07.979Z,85.84
2016-12-05T03:36:07.530Z,84.99
2016-12-05T03:37:08.032Z,85.57
2016-12-05T03:38:08.290Z,84.78
2016-12-05T03:39:07.978Z,83.66
2016-12-05T03:40:07.636Z,83.28
2016-12-05T03:41:08.307Z,83.41
2016-12-05T03:42:07.907Z,82.96
2016-12-05T03:43:08.648Z,83.20
2016-12-05T03:44:08.293Z,82.60
2016-12-05T03:45:07.863Z,82.56
2016-12-05T03:46:08.466Z,83.75
2016-12-05T03:47:08.090Z,83.08
2016-12-05T03:48:07.574Z,83.34
2016-12-05T03:49:08.149Z,83.70
2016-12-05T03:50:07.677Z,83.95
2016-12-05T03:51:08.165Z,82.96
2016-12-05T03:52:07.563Z,83.18
2016-12-05T03:53:08.061Z,83.79
2016-12-05T03:54:07.757Z,85.76
2016-12-05T03:55:07.592Z,84.90
2016-12-05T03:56:08.189Z,84.60
2016-12-05T03:57:07.973Z,84.66
2016-12-05T03:58:07.669Z,84.63
2016-12-05T03:59:07.621Z,84.44
2016-12-05T04:00:08.143Z,83.83
2016-12-05T04:01:07.782Z,83.72
2016-12-05T04:02:08.301Z,84.50
2016-12-05T04:03:08.130Z,84.83
2016-12-05T04:04:07.748Z,84.61
2016-12-05T04:05:08.399Z,85.15
2016-12-05T04:06:07.926Z,84.85
2016-12-05T04:07:08.655Z,84.50
2016-12-05T04:08:08.248Z,84.99
2016-12-05T04:09:08.505Z,84.24
2016-12-05T04:10:08.259Z,84.10
2016-12-05T04:11:07.964Z,83.33
2016-12-05T04:12:07.515Z,83.31
2016-12-05T04:13:08.162Z,84.36
2016-12-05T04:14:07.765Z,84.64
2016-12-05T04:15:08.381Z,84.07
2016-12-05T04:16:07.843Z,84.33
2016-12-05T04:17:08.496Z,85.20
2016-12-05T04:18:08.070Z,84.85
2016-12-05T04:19:07.657Z,85.03
2016-12-05T04:20:08.349Z,84.41
2016-12-05T04:21:07.981Z,84.39
2016-12-05T04:22:08.028Z,85.60
2016-12-05T04:23:07.520Z,85.74
2016-12-05T04:24:08.114Z,85.01
2016-12-05T04:25:07.629Z,85.60
2016-12-05T04:26:08.321Z,85.39
2016-12-05T04:27:07.888Z,83.95
2016-12-05T04:28:08.470Z,83.74
2016-12-05T04:29:08.293Z,85.35
2016-12-05T04:31:08.140Z,84.42
2016-12-05T04:32:07.641Z,84.21
2016-12-05T04:33:08.288Z,83.97
2016-12-05T04:34:07.816Z,84.75
2016-12-05T04:35:08.469Z,84.20
2016-12-05T04:36:07.998Z,84.74
2016-12-05T04:37:07.509Z,84.24
2016-12-05T04:38:08.012Z,84.72
2016-12-05T04:39:08.485Z,85.58
2016-12-05T04:40:08.112Z,85.17
2016-12-05T04:41:07.640Z,84.66
2016-12-05T04:42:08.149Z,85.40
2016-12-05T04:43:07.659Z,85.26
2016-12-05T04:44:08.265Z,85.37
2016-12-05T04:45:07.839Z,85.80
2016-12-05T04:46:08.418Z,85.35
2016-12-05T04:47:08.060Z,84.72
2016-12-05T04:48:09.749Z,84.60
2016-12-05T04:49:08.304Z,84.71
2016-12-05T04:50:07.811Z,85.25
2016-12-05T04:51:08.448Z,85.15
2016-12-05T04:52:07.929Z,84.58
2016-12-05T04:53:08.543Z,84.91
2016-12-05T04:54:08.152Z,84.76
2016-12-05T04:55:07.788Z,84.64
2016-12-05T04:56:08.467Z,84.04
2016-12-05T04:57:08.093Z,84.04
2016-12-05T04:58:07.701Z,84.67
2016-12-05T04:59:08.299Z,84.80
2016-12-05T05:00:07.869Z,85.02
2016-12-05T05:01:07.740Z,84.30
2016-12-05T05:02:08.412Z,83.93
2016-12-05T05:03:07.995Z,84.41
2016-12-05T05:04:07.558Z,84.16
2016-12-05T05:05:08.180Z,84.03
2016-12-05T05:06:07.733Z,84.82
2016-12-05T05:07:08.359Z,84.63
2016-12-05T05:08:08.012Z,83.74
2016-12-05T05:09:07.515Z,84.70
2016-12-05T05:10:08.088Z,84.63
2016-12-05T05:11:07.647Z,84.48
2016-12-05T05:12:08.242Z,84.66
2016-12-05T05:13:07.914Z,83.85
2016-12-05T05:14:08.598Z,84.04
2016-12-05T05:15:08.160Z,84.25
2016-12-05T05:16:07.592Z,84.12
2016-12-05T05:17:08.294Z,85.34
2016-12-05T05:18:07.822Z,85.03
2016-12-05T05:19:08.289Z,85.14
2016-12-05T05:20:07.958Z,84.47
2016-12-05T05:21:07.631Z,84.05
2016-12-05T05:22:08.261Z,83.98
2016-12-05T05:23:07.802Z,83.93
2016-12-05T05:24:09.101Z,83.38
2016-12-05T05:25:10.704Z,83.05
2016-12-05T05:26:07.833Z,83.94
2016-12-05T05:27:08.462Z,84.14
2016-12-05T05:28:08.045Z,83.92
2016-12-05T05:29:07.609Z,83.91
2016-12-05T05:30:08.219Z,84.74
2016-12-05T05:31:07.947Z,84.61
2016-12-05T05:32:07.494Z,84.82
2016-12-05T05:33:08.090Z,85.10
2016-12-05T05:34:07.665Z,85.06
2016-12-05T05:35:08.276Z,84.81
2016-12-05T05:36:07.853Z,84.87
2016-12-05T05:37:08.519Z,85.08
2016-12-05T05:38:08.774Z,86.01
2016-12-05T05:39:08.406Z,85.36
2016-12-05T05:40:08.080Z,85.81
2016-12-05T05:41:09.154Z,86.07
2016-12-05T05:42:07.645Z,85.89
2016-12-05T05:43:08.478Z,85.19
2016-12-05T05:44:08.173Z,85.46
2016-12-05T05:45:07.795Z,84.97
2016-12-05T05:46:08.371Z,84.67
2016-12-05T05:47:08.172Z,84.57
2016-12-05T05:48:07.786Z,84.64
2016-12-05T05:49:08.476Z,85.06
2016-12-05T05:50:08.128Z,84.50
2016-12-05T05:51:07.751Z,84.05
2016-12-05T05:52:08.232Z,83.63
2016-12-05T05:53:07.764Z,83.95
2016-12-05T05:54:08.883Z,85.23
2016-12-05T05:55:08.528Z,85.04
2016-12-05T05:56:08.196Z,85.39
2016-12-05T05:57:07.773Z,84.45
2016-12-05T05:58:08.364Z,84.84
2016-12-05T05:59:07.987Z,85.77
2016-12-05T06:00:07.673Z,86.15
2016-12-05T06:01:08.241Z,86.04
2016-12-05T06:02:07.782Z,86.35
2016-12-05T06:03:08.537Z,85.70
2016-12-05T06:04:08.116Z,85.05
2016-12-05T06:05:08.123Z,84.73
2016-12-05T06:06:07.705Z,86.08
2016-12-05T06:07:08.585Z,85.53
2016-12-05T06:08:08.418Z,84.71
2016-12-05T06:09:08.017Z,84.33
2016-12-05T06:10:07.559Z,83.15
2016-12-05T06:11:08.276Z,83.68
2016-12-05T06:12:07.773Z,83.55
2016-12-05T06:13:08.368Z,83.94
2016-12-05T06:14:07.865Z,83.87
2016-12-05T06:15:08.469Z,84.82
2016-12-05T06:16:08.108Z,85.31
2016-12-05T06:17:07.808Z,85.73
2016-12-05T06:18:08.422Z,85.69
2016-12-05T06:19:08.114Z,84.79
2016-12-05T06:20:07.730Z,84.05
2016-12-05T06:21:08.293Z,83.34
2016-12-05T06:22:07.894Z,83.68
2016-12-05T06:23:08.462Z,83.72
2016-12-05T06:24:08.058Z,84.07
2016-12-05T06:25:13.254Z,83.90
2016-12-05T06:26:07.769Z,84.23
2016-12-05T06:27:08.479Z,84.61
2016-12-05T06:28:08.105Z,85.04
2016-12-05T06:29:07.661Z,84.81
2016-12-05T06:30:08.521Z,83.92
2016-12-05T06:31:08.144Z,84.53
2016-12-05T06:32:07.669Z,85.53
2016-12-05T06:33:08.213Z,84.75
2016-12-05T06:34:07.795Z,84.74
2016-12-05T06:35:08.444Z,83.66
2016-12-05T06:36:08.001Z,83.89
2016-12-05T06:37:07.475Z,84.39
2016-12-05T06:38:08.373Z,86.51
2016-12-05T06:39:07.875Z,86.02
2016-12-05T06:40:08.440Z,86.22
2016-12-05T06:41:07.944Z,85.66
2016-12-05T06:42:07.432Z,85.83
2016-12-05T06:43:07.930Z,85.48
2016-12-05T06:44:08.559Z,84.33
2016-12-05T06:45:08.237Z,85.45
2016-12-05T06:46:07.833Z,86.13
2016-12-05T06:47:08.513Z,85.45
2016-12-05T06:48:08.074Z,85.66
2016-12-05T06:49:07.522Z,84.65
2016-12-05T06:50:08.117Z,85.05
2016-12-05T06:51:07.611Z,84.24
2016-12-05T06:52:08.216Z,84.30
2016-12-05T06:53:07.780Z,85.04
2016-12-05T06:54:08.346Z,85.13
2016-12-05T06:55:07.873Z,85.24
2016-12-05T06:56:08.803Z,85.55
2016-12-05T06:57:09.261Z,84.84
2016-12-05T06:58:13.294Z,84.00
2016-12-05T06:59:08.076Z,83.14
2016-12-05T07:00:07.976Z,82.68
2016-12-05T07:01:07.512Z,83.10
2016-12-05T07:02:08.156Z,84.00
2016-12-05T07:03:07.707Z,84.25
2016-12-05T07:04:09.145Z,84.65
2016-12-05T07:05:07.720Z,83.96
2016-12-05T07:06:08.353Z,84.16
2016-12-05T07:07:14.111Z,85.51
2016-12-05T07:08:07.676Z,85.55
2016-12-05T07:09:08.286Z,85.15
2016-12-05T07:10:07.879Z,84.99
2016-12-05T07:11:08.515Z,84.51
2016-12-05T07:12:08.515Z,84.41
2016-12-05T07:13:08.035Z,83.73
2016-12-05T07:14:07.619Z,83.38
2016-12-05T07:15:08.732Z,83.31
2016-12-05T07:16:08.458Z,83.26
2016-12-05T07:17:08.207Z,83.91
2016-12-05T07:18:14.399Z,82.66
2016-12-05T07:19:07.941Z,82.94
2016-12-05T07:20:08.272Z,82.91
2016-12-05T07:21:07.849Z,83.39
2016-12-05T07:22:15.377Z,82.85
2016-12-05T07:23:07.945Z,82.61
2016-12-05T07:24:07.509Z,83.35
2016-12-05T07:25:08.072Z,82.66
2016-12-05T07:26:07.654Z,82.21
2016-12-05T07:27:08.373Z,82.47
2016-12-05T07:28:07.896Z,82.55
2016-12-05T07:29:08.431Z,82.40
2016-12-05T07:30:08.166Z,82.29
2016-12-05T07:31:07.782Z,84.12
2016-12-05T07:32:09.448Z,84.10
2016-12-05T07:33:08.068Z,82.81
2016-12-05T07:34:07.564Z,83.04
2016-12-05T07:35:08.154Z,82.35
2016-12-05T07:36:08.655Z,83.04
2016-12-05T07:37:08.349Z,83.74
2016-12-05T07:38:08.451Z,84.62
2016-12-05T07:39:11.938Z,83.40
2016-12-05T08:51:07.721Z,81.56
2016-12-05T08:52:08.868Z,80.66
2016-12-05T08:53:08.430Z,80.21
2016-12-05T08:54:08.048Z,80.87
2016-12-05T08:55:07.889Z,80.12
2016-12-05T08:56:08.583Z,79.41
2016-12-05T08:57:08.048Z,80.52
2016-12-05T08:58:09.333Z,79.47
2016-12-05T08:59:07.832Z,79.96
2016-12-05T09:00:08.474Z,79.84
2016-12-05T09:01:08.167Z,80.64
2016-12-05T09:02:07.745Z,79.95
2016-12-05T09:03:18.634Z,79.16
2016-12-05T09:04:07.847Z,79.75
2016-12-05T09:05:08.706Z,80.56
2016-12-05T09:06:08.317Z,79.57
2016-12-05T09:07:07.837Z,79.40
2016-12-05T09:08:08.590Z,80.33
2016-12-05T09:09:08.211Z,81.34
2016-12-05T09:10:07.696Z,82.08
2016-12-05T09:11:08.411Z,81.19
2016-12-05T09:12:07.915Z,81.32
2016-12-05T09:13:08.548Z,80.60
2016-12-05T09:14:08.160Z,79.57
2016-12-05T09:15:07.652Z,80.17
2016-12-05T09:16:08.280Z,80.49
2016-12-05T09:17:07.982Z,80.73
2016-12-05T09:18:07.509Z,80.27
2016-12-05T09:19:08.198Z,80.12
2016-12-05T09:20:07.856Z,79.99
2016-12-05T09:21:08.574Z,79.84
2016-12-05T09:22:08.251Z,79.92
2016-12-05T09:23:07.727Z,79.29
2016-12-05T09:24:08.306Z,78.98
2016-12-05T09:25:08.184Z,79.22
2016-12-05T09:26:07.799Z,79.50
2016-12-05T09:27:08.343Z,79.60
2016-12-05T09:28:07.879Z,80.25
2016-12-05T09:29:08.369Z,81.11
2016-12-05T09:30:07.901Z,81.08
2016-12-05T09:31:15.324Z,80.10
2016-12-05T09:32:07.838Z,79.39
2016-12-05T09:33:08.418Z,78.60
2016-12-05T09:34:07.902Z,78.12
2016-12-05T09:35:08.449Z,78.39
2016-12-05T09:36:07.964Z,78.84
2016-12-05T09:37:07.548Z,79.13
2016-12-05T09:38:08.099Z,79.06
2016-12-05T09:39:13.451Z,80.73
2016-12-05T09:40:08.162Z,80.80
2016-12-05T09:41:07.646Z,80.65
2016-12-05T09:42:08.254Z,79.62
2016-12-05T09:43:07.789Z,80.27
2016-12-05T09:44:08.421Z,79.39
2016-12-05T09:45:08.013Z,79.39
2016-12-05T09:46:07.442Z,80.00
2016-12-05T09:47:08.619Z,79.91
2016-12-05T09:48:08.151Z,80.92
2016-12-05T09:49:07.672Z,81.12
2016-12-05T09:50:08.354Z,80.66
2016-12-05T09:51:07.940Z,79.74
2016-12-05T09:52:07.668Z,79.03
2016-12-05T09:53:08.220Z,79.42
2016-12-05T09:54:07.922Z,80.00
2016-12-05T09:55:08.542Z,78.94
2016-12-05T09:56:08.159Z,79.44
2016-12-05T09:57:07.678Z,79.10
2016-12-05T09:58:08.303Z,79.44
2016-12-05T09:59:07.848Z,79.97
2016-12-05T10:00:08.306Z,80.25
2016-12-05T10:01:07.881Z,79.95
2016-12-05T10:02:08.471Z,78.92
2016-12-05T10:03:08.026Z,79.66
2016-12-05T10:04:07.501Z,80.60
2016-12-05T10:05:08.126Z,80.73
2016-12-05T10:06:08.027Z,80.11
2016-12-05T10:07:07.526Z,79.67
2016-12-05T10:08:08.049Z,79.37
2016-12-05T10:09:07.897Z,79.58
2016-12-05T10:10:08.571Z,80.11
2016-12-05T10:11:08.251Z,80.01
2016-12-05T10:12:07.797Z,80.05
2016-12-05T10:13:08.398Z,80.10
2016-12-05T10:14:07.936Z,79.52
2016-12-05T10:15:07.432Z,79.94
2016-12-05T10:16:07.977Z,80.33
2016-12-05T10:17:07.664Z,79.49
2016-12-05T10:18:08.202Z,79.42
2016-12-05T10:19:07.687Z,79.30
2016-12-05T10:20:08.274Z,79.07
2016-12-05T10:21:07.829Z,78.91
2016-12-05T10:22:08.438Z,78.53
2016-12-05T10:23:07.970Z,78.35
2016-12-05T10:24:07.512Z,79.66
2016-12-05T10:25:08.073Z,79.16
2016-12-05T10:26:07.883Z,78.29
2016-12-05T10:27:08.492Z,78.16
2016-12-05T10:28:08.044Z,77.96
2016-12-05T10:29:07.548Z,77.75
2016-12-05T10:30:08.068Z,78.12
2016-12-05T10:31:07.571Z,77.76
2016-12-05T10:32:08.122Z,77.57
2016-12-05T10:33:07.709Z,77.62
2016-12-05T10:34:08.246Z,77.29
2016-12-05T10:35:07.857Z,77.22
2016-12-05T10:36:08.355Z,77.19
2016-12-05T10:37:08.003Z,76.50
2016-12-05T10:38:07.488Z,76.76
2016-12-05T10:39:08.043Z,76.64
2016-12-05T10:40:07.936Z,76.43
2016-12-05T10:41:07.404Z,76.68
2016-12-05T10:42:07.983Z,77.05
2016-12-05T10:43:07.512Z,77.17
2016-12-05T10:44:08.142Z,76.15
2016-12-05T10:45:07.673Z,76.78
2016-12-05T10:46:08.277Z,76.41
2016-12-05T10:47:07.788Z,77.01
2016-12-05T10:48:08.334Z,77.01
2016-12-05T10:49:07.920Z,76.52
2016-12-05T10:50:08.582Z,76.68
2016-12-05T10:51:08.209Z,76.85
2016-12-05T10:52:07.741Z,76.81
2016-12-05T10:53:08.332Z,77.20
2016-12-05T10:54:07.824Z,77.49
2016-12-05T10:55:08.473Z,77.94
2016-12-05T10:56:08.059Z,76.85
2016-12-05T10:57:07.904Z,75.90
2016-12-05T10:58:08.529Z,76.32
2016-12-05T10:59:08.091Z,76.49
2016-12-05T11:00:07.892Z,76.28
2016-12-05T11:01:08.792Z,76.38
2016-12-05T11:02:08.252Z,76.34
2016-12-05T11:03:07.750Z,75.91
2016-12-05T11:04:08.269Z,75.77
2016-12-05T11:05:07.910Z,75.63
2016-12-05T11:06:08.597Z,76.66
2016-12-05T11:07:08.122Z,77.36
2016-12-05T11:08:07.634Z,76.45
2016-12-05T11:09:08.209Z,77.16
2016-12-05T11:10:07.735Z,76.32
2016-12-05T11:11:08.340Z,76.45
2016-12-05T11:12:07.843Z,76.87
2016-12-05T11:13:08.521Z,76.14
2016-12-05T11:14:08.119Z,76.39
2016-12-05T11:15:45.913Z,76.28
2016-12-05T11:16:08.572Z,75.68
2016-12-05T11:17:08.253Z,76.42
2016-12-05T11:18:07.831Z,76.47
2016-12-05T11:19:08.429Z,76.40
2016-12-05T11:20:08.056Z,75.94
2016-12-05T11:21:07.584Z,76.50
2016-12-05T11:22:08.277Z,77.03
2016-12-05T11:23:08.700Z,77.01
2016-12-05T11:24:08.292Z,76.52
2016-12-05T11:25:08.128Z,76.22
2016-12-05T11:26:07.617Z,75.99
2016-12-05T11:27:09.034Z,75.61
2016-12-05T11:28:07.504Z,75.96
2016-12-05T11:29:08.968Z,76.36
2016-12-05T11:30:07.679Z,75.58
2016-12-05T11:31:08.428Z,76.02
2016-12-05T11:32:08.041Z,75.81
2016-12-05T11:33:07.633Z,75.83
2016-12-05T11:34:08.156Z,75.32
2016-12-05T11:35:07.951Z,75.24
2016-12-05T11:36:07.456Z,75.30
2016-12-05T11:37:08.091Z,74.92
2016-12-05T11:38:07.662Z,75.59
2016-12-05T11:39:08.331Z,75.29
2016-12-05T11:40:07.981Z,74.96
2016-12-05T11:41:07.545Z,74.72
2016-12-05T11:42:08.133Z,75.66
2016-12-05T11:43:07.715Z,75.29
2016-12-05T11:44:08.333Z,75.63
2016-12-05T11:45:07.901Z,73.88
2016-12-05T11:46:08.530Z,74.69
2016-12-05T11:47:08.117Z,74.75
2016-12-05T11:48:07.609Z,74.33
2016-12-05T11:49:08.255Z,75.08
2016-12-05T11:50:07.832Z,74.42
2016-12-05T11:51:08.346Z,74.59
2016-12-05T11:52:07.788Z,74.75
2016-12-05T11:53:08.318Z,74.09
2016-12-05T11:54:07.835Z,74.48
2016-12-05T11:55:08.382Z,74.95
2016-12-05T11:56:08.023Z,74.61
2016-12-05T11:57:07.563Z,73.87
2016-12-05T11:58:08.114Z,73.16
2016-12-05T11:59:07.676Z,72.67
2016-12-05T12:00:08.204Z,73.51
2016-12-05T12:01:07.785Z,74.37
2016-12-05T12:02:08.216Z,73.87
2016-12-05T12:03:07.444Z,74.08
2016-12-05T12:04:07.975Z,73.90
2016-12-05T12:05:07.700Z,73.87
2016-12-05T12:06:08.188Z,73.84
2016-12-05T12:07:07.767Z,73.17
2016-12-05T12:08:08.361Z,72.67
2016-12-05T12:09:08.003Z,72.74
2016-12-05T12:10:07.517Z,73.08
2016-12-05T12:11:08.113Z,73.66
2016-12-05T12:12:07.606Z,73.39
2016-12-05T12:13:08.215Z,74.08
2016-12-05T12:14:07.845Z,74.32
2016-12-05T12:15:08.338Z,73.87
2016-12-05T12:16:08.016Z,73.63
2016-12-05T12:17:07.683Z,73.88
2016-12-05T12:18:08.299Z,72.38
2016-12-05T12:19:07.865Z,72.71
2016-12-05T12:20:08.445Z,72.68
2016-12-05T12:21:08.473Z,73.46
2016-12-05T12:22:07.963Z,74.00
2016-12-05T12:23:07.445Z,73.75
2016-12-05T12:24:07.985Z,74.21
2016-12-05T12:25:07.506Z,73.78
2016-12-05T12:26:08.070Z,72.61
2016-12-05T12:27:07.567Z,72.77
2016-12-05T12:28:08.184Z,73.25
2016-12-05T12:29:07.804Z,73.87
2016-12-05T12:30:20.472Z,74.10
2016-12-05T12:31:08.123Z,73.06
2016-12-05T12:32:07.736Z,73.33
2016-12-05T12:33:08.364Z,73.12
2016-12-05T12:34:07.988Z,73.19
2016-12-05T12:35:07.433Z,73.85
2016-12-05T12:36:08.020Z,74.10
2016-12-05T12:37:07.786Z,73.69
2016-12-05T12:38:08.338Z,74.40
2016-12-05T12:39:07.885Z,73.87
2016-12-05T12:40:08.471Z,74.07
2016-12-05T12:41:08.075Z,73.15
2016-12-05T12:42:07.681Z,73.30
2016-12-05T12:43:08.314Z,72.35
2016-12-05T12:44:07.925Z,72.90
2016-12-05T12:45:08.606Z,73.38
2016-12-05T12:46:08.095Z,72.97
2016-12-05T12:47:07.564Z,72.91
2016-12-05T12:48:08.142Z,73.18
2016-12-05T12:49:07.665Z,73.34
2016-12-05T12:50:07.950Z,73.00
2016-12-05T12:51:07.484Z,72.55
2016-12-05T12:52:08.030Z,73.52
2016-12-05T12:53:07.509Z,72.85
2016-12-05T12:54:08.094Z,72.93
2016-12-05T12:55:07.603Z,74.14
2016-12-05T12:56:08.090Z,73.47
2016-12-05T12:57:07.625Z,72.70
2016-12-05T12:58:08.234Z,72.29
2016-12-05T12:59:07.732Z,72.83
2016-12-05T13:00:08.332Z,72.59
2016-12-05T13:01:07.951Z,72.14
2016-12-05T13:02:07.446Z,72.21
2016-12-05T13:03:08.041Z,71.64
2016-12-05T13:04:07.695Z,71.68
2016-12-05T13:05:08.365Z,71.43
2016-12-05T13:06:07.870Z,71.66
2016-12-05T13:07:08.460Z,71.88
2016-12-05T13:08:13.730Z,71.63
2016-12-05T13:09:13.910Z,71.35
2016-12-05T13:10:08.507Z,71.01
2016-12-05T13:11:08.045Z,71.36
2016-12-05T13:12:07.616Z,71.47
2016-12-05T13:13:08.235Z,71.61
2016-12-05T13:14:07.774Z,71.89
2016-12-05T13:15:08.406Z,72.60
2016-12-05T13:16:08.029Z,71.36
2016-12-05T13:17:07.704Z,70.51
2016-12-05T13:18:08.255Z,70.63
2016-12-05T13:19:07.888Z,70.28
2016-12-05T13:20:08.454Z,70.02
2016-12-05T13:21:08.036Z,70.36
2016-12-05T13:22:07.603Z,70.66
2016-12-05T13:23:08.259Z,70.48
2016-12-05T13:24:07.873Z,70.62
2016-12-05T13:25:08.495Z,69.76
2016-12-05T13:26:08.026Z,69.44
2016-12-05T13:27:07.597Z,69.09
2016-12-05T13:28:08.303Z,69.08
2016-12-05T13:29:07.899Z,68.85
2016-12-05T13:30:08.449Z,69.48
2016-12-05T13:31:08.100Z,68.79
2016-12-05T13:32:07.699Z,69.40
2016-12-05T13:33:08.322Z,68.88
2016-12-05T13:34:07.974Z,68.76
2016-12-05T13:35:07.497Z,69.03
2016-12-05T13:36:08.230Z,68.24
2016-12-05T13:37:07.991Z,68.73
2016-12-05T13:38:07.553Z,69.34
2016-12-05T13:39:08.155Z,69.65
2016-12-05T13:40:07.760Z,69.36
2016-12-05T13:41:08.404Z,68.76
2016-12-05T13:42:07.924Z,69.19
2016-12-05T13:43:08.550Z,69.29
2016-12-05T13:44:08.169Z,69.57
2016-12-05T13:45:07.662Z,69.45
2016-12-05T13:46:08.215Z,70.37
2016-12-05T13:47:07.918Z,70.25
2016-12-05T13:48:08.497Z,70.33
2016-12-05T13:49:08.136Z,70.33
2016-12-05T13:50:07.748Z,70.44
2016-12-05T13:51:08.403Z,70.38
2016-12-05T13:52:07.997Z,70.86
2016-12-05T13:53:07.507Z,71.15
2016-12-05T13:54:08.138Z,71.20
2016-12-05T13:55:07.602Z,71.30
2016-12-05T13:56:08.170Z,71.59
2016-12-05T13:57:07.637Z,71.66
2016-12-05T13:58:08.304Z,71.40
2016-12-05T13:59:07.853Z,71.36
2016-12-05T14:00:08.396Z,70.99
2016-12-05T14:01:08.015Z,70.56
2016-12-05T14:02:07.482Z,69.19
2016-12-05T14:03:08.054Z,69.04
2016-12-05T14:04:07.693Z,69.00